^^
Datos históricos de la estación: Murcia-Puente Tocinos
Diario Informe para Noviembre 27, 2021 Unidades:  Ingés    Métrico   Ambas
Diario Semanal Mensual Anual
  Máxima: Mínima: Promedio:
Temperatura: 63.7 °F 43.7 °F 52.2 °F
Punto de rocio: 37.8 °F 30.2 °F 34.9 °F
Humedad: 75% 33% 53%
Velocidad viento: 23.5mph 0mph 7.1mph
Racha viento: 39.1mph - -
Viento- - SO
Presión: 29.8 in 29.6 in -
Precipitación: 0 in    
 
 
Tabla de datos para Noviembre 27, 2021
Hora Temperatura Punto de rocio Presión Viento Velocidad viento Racha viento Humedad Intensidad lluvia(por hora) Nubes
00:04 52.2 °F 35.4 °F 29.8 in SSO 4.7 mph 9.2 mph 53% 0 in
00:09 52.2 °F 35.4 °F 29.8 in SO 4.8 mph 8.5 mph 53% 0 in
00:14 52.2 °F 35.4 °F 29.8 in SO 5.2 mph 9.2 mph 53% 0 in
00:19 52.2 °F 35.4 °F 29.8 in OSO 5 mph 7.6 mph 53% 0 in
00:24 52.2 °F 35.4 °F 29.8 in SO 4.7 mph 8.5 mph 53% 0 in
00:29 52.2 °F 35.4 °F 29.8 in SSO 4.9 mph 9.7 mph 53% 0 in
00:34 52.2 °F 35.4 °F 29.8 in Oeste 5.2 mph 10.7 mph 53% 0 in
00:39 52 °F 35.4 °F 29.8 in OSO 4.8 mph 7.4 mph 53.2% 0 in
00:44 51.6 °F 35.6 °F 29.8 in SO 4.3 mph 10.2 mph 54% 0 in
00:49 51.4 °F 35.2 °F 29.8 in SO 5 mph 10.4 mph 54% 0 in
00:54 51.4 °F 35.6 °F 29.8 in SSO 6.2 mph 8.1 mph 54.6% 0 in
00:59 51.3 °F 35.6 °F 29.8 in SSO 5.8 mph 8.1 mph 55% 0 in
01:04 50.9 °F 35.8 °F 29.8 in SSO 5.2 mph 8.5 mph 56% 0 in
01:09 50.5 °F 35.8 °F 29.8 in Sur 5.5 mph 8.5 mph 56.4% 0 in
01:14 50.4 °F 35.8 °F 29.8 in SSO 5.9 mph 9.2 mph 57% 0 in
01:19 50.2 °F 35.6 °F 29.8 in SSO 6 mph 11.8 mph 57% 0 in
01:24 50.4 °F 35.4 °F 29.8 in SO 6.2 mph 9.2 mph 56.4% 0 in
01:29 50.5 °F 35.4 °F 29.8 in SO 6.2 mph 10.4 mph 56% 0 in
01:34 50.7 °F 35.2 °F 29.8 in SO 6.2 mph 13.8 mph 55.1% 0 in
01:39 50.9 °F 35.2 °F 29.8 in SO 6.2 mph 9.7 mph 55% 0 in
01:44 50.7 °F 35.1 °F 29.8 in SO 6.2 mph 10.7 mph 55% 0 in
01:49 50.7 °F 35.1 °F 29.8 in SO 6.1 mph 10.7 mph 55% 0 in
01:54 50.7 °F 35.1 °F 29.8 in SO 5.9 mph 11.5 mph 55% 0 in
01:59 50.9 °F 34.9 °F 29.8 in SO 6 mph 9.7 mph 54.1% 0 in
02:04 50.9 °F 34.9 °F 29.8 in SO 6.2 mph 10.4 mph 54% 0 in
02:09 50.9 °F 34.9 °F 29.8 in SO 6.2 mph 9.2 mph 54% 0 in
02:14 50.7 °F 34.7 °F 29.8 in SO 6.2 mph 8.5 mph 54% 0 in
02:19 50.7 °F 34.7 °F 29.8 in SO 6.1 mph 10.4 mph 54% 0 in
02:24 50.9 °F 34.7 °F 29.8 in SO 5.9 mph 10.4 mph 54% 0 in
02:29 50.9 °F 34.9 °F 29.8 in SO 6 mph 9.7 mph 54% 0 in
02:34 50.7 °F 34.7 °F 29.8 in SO 6.2 mph 12.7 mph 54% 0 in
02:39 50.7 °F 34.7 °F 29.8 in OSO 6.3 mph 10.7 mph 54% 0 in
02:44 50.5 °F 34.5 °F 29.8 in SO 6.4 mph 10.4 mph 54% 0 in
02:49 50.5 °F 34.5 °F 29.8 in SO 6.3 mph 9.2 mph 54% 0 in
02:54 50.5 °F 34.5 °F 29.8 in OSO 6.2 mph 8.5 mph 54% 0 in
02:59 50.5 °F 34.5 °F 29.8 in OSO 6.1 mph 10.4 mph 54% 0 in
03:04 50.4 °F 34.3 °F 29.8 in Oeste 5.9 mph 10.4 mph 54% 0 in
03:09 50.4 °F 34.2 °F 29.8 in OSO 5.7 mph 8.5 mph 53.8% 0 in
03:14 50.4 °F 34 °F 29.8 in OSO 5.4 mph 9.2 mph 53% 0 in
03:19 50.4 °F 33.8 °F 29.8 in OSO 5.4 mph 9.2 mph 53% 0 in
03:24 50.2 °F 33.6 °F 29.8 in OSO 5.4 mph 10.2 mph 53% 0 in
03:29 50.2 °F 33.6 °F 29.8 in OSO 5.3 mph 10.4 mph 53% 0 in
03:34 50.2 °F 34.2 °F 29.8 in OSO 5.2 mph 10.4 mph 53.8% 0 in
03:39 50 °F 34 °F 29.8 in OSO 5.3 mph 9.2 mph 54% 0 in
03:44 49.6 °F 33.8 °F 29.8 in Oeste 5.4 mph 7.4 mph 54.3% 0 in
03:49 49.6 °F 34.2 °F 29.8 in OSO 4.8 mph 6.9 mph 55% 0 in
03:54 49.6 °F 34.2 °F 29.8 in SSO 3.6 mph 6.9 mph 55% 0 in
03:59 49.6 °F 34.2 °F 29.8 in Sur 3.4 mph 4.6 mph 55% 0 in
04:04 49.5 °F 34.3 °F 29.8 in ENE 2.9 mph 4.7 mph 55.7% 0 in
04:09 48.7 °F 34.3 °F 29.8 in ENE 2.5 mph 4.6 mph 57.5% 0 in
04:14 48.2 °F 34.5 °F 29.7 in ESE 2 mph 5.2 mph 59% 0 in
04:19 47.7 °F 34.7 °F 29.7 in SE 2.3 mph 5.2 mph 60.5% 0 in
04:24 47.3 °F 34.7 °F 29.7 in Sur 2.9 mph 8.1 mph 61.4% 0 in
04:29 47.3 °F 34.9 °F 29.7 in SSO 3.7 mph 8.5 mph 62% 0 in
04:34 47.5 °F 34.7 °F 29.7 in SSO 5.2 mph 8.7 mph 61.1% 0 in
04:39 47.5 °F 34.7 °F 29.7 in SSO 5.6 mph 11.5 mph 61.2% 0 in
04:44 47.5 °F 35.1 °F 29.7 in SSO 6.4 mph 10.7 mph 62% 0 in
04:49 47.1 °F 35.1 °F 29.7 in SO 6.4 mph 9.2 mph 62.4% 0 in
04:54 47.1 °F 35.2 °F 29.7 in SO 6.4 mph 8.5 mph 63% 0 in
04:59 46.9 °F 35.1 °F 29.7 in SO 6 mph 8.1 mph 63% 0 in
05:04 46.9 °F 35.4 °F 29.7 in SO 5.4 mph 8.5 mph 64% 0 in
05:09 46.8 °F 35.2 °F 29.7 in OSO 5.3 mph 8.1 mph 64% 0 in
05:14 46.8 °F 35.2 °F 29.7 in OSO 5.2 mph 6.9 mph 64% 0 in
05:19 46.8 °F 35.6 °F 29.7 in Oeste 5 mph 6.9 mph 64.9% 0 in
05:24 46.6 °F 35.4 °F 29.7 in Oeste 4.7 mph 5.8 mph 65% 0 in
05:29 46.4 °F 35.2 °F 29.7 in OSO 4.3 mph 5.9 mph 65% 0 in
05:34 46.2 °F 35.4 °F 29.7 in OSO 3.6 mph 4.6 mph 65.9% 0 in
05:39 46 °F 35.4 °F 29.7 in SO 3 mph 2.9 mph 66% 0 in
05:44 46 °F 35.2 °F 29.7 in SSE 2 mph 7.4 mph 66% 0 in
05:49 45.9 °F 35.4 °F 29.7 in SE 2.4 mph 5.8 mph 67% 0 in
05:54 45.7 °F 35.6 °F 29.7 in SSE 3.1 mph 4.7 mph 68% 0 in
05:59 45.5 °F 35.6 °F 29.7 in Sur 3.1 mph 4.6 mph 68.5% 0 in
06:04 45.3 °F 35.6 °F 29.7 in Sur 3.1 mph 5.9 mph 69% 0 in
06:09 45.1 °F 35.6 °F 29.7 in SSE 3.1 mph 5.9 mph 69% 0 in
06:14 45 °F 35.6 °F 29.7 in SSE 3.1 mph 5.9 mph 69.6% 0 in
06:19 45 °F 35.8 °F 29.7 in SSE 3.4 mph 5.8 mph 70% 0 in
06:24 44.8 °F 35.8 °F 29.7 in SE 4 mph 6.9 mph 70.4% 0 in
06:29 44.4 °F 35.6 °F 29.7 in SE 4.2 mph 8.5 mph 71% 0 in
06:34 44.1 °F 35.6 °F 29.7 in SSE 4.7 mph 8.1 mph 72% 0 in
06:39 43.9 °F 35.8 °F 29.7 in SSE 4.8 mph 7.6 mph 72.9% 0 in
06:44 43.7 °F 35.6 °F 29.7 in Sur 5.2 mph 8.1 mph 73% 0 in
06:49 43.7 °F 35.6 °F 29.7 in SSO 4.9 mph 5.2 mph 73% 0 in
06:54 43.9 °F 35.8 °F 29.7 in SO 4.3 mph 4.7 mph 73% 0 in
06:59 44.1 °F 36 °F 29.7 in SO 3.9 mph 4.6 mph 73% 0 in
07:04 44.1 °F 36 °F 29.7 in SSO 3.1 mph 4.7 mph 73% 0 in
07:09 44.2 °F 35.8 °F 29.7 in Sur 3.3 mph 4.7 mph 72% 0 in
07:14 44.4 °F 36 °F 29.7 in SSE 3.6 mph 5.8 mph 72% 0 in
07:19 44.4 °F 36 °F 29.7 in SE 3.4 mph 5.2 mph 72% 0 in
07:24 44.2 °F 36 °F 29.7 in SSE 3.1 mph 5.8 mph 72.1% 0 in
07:29 44.2 °F 36.1 °F 29.7 in Sur 3.3 mph 5.2 mph 73% 0 in
07:34 44.2 °F 36.1 °F 29.7 in SO 3.6 mph 4.6 mph 73% 0 in
07:39 44.2 °F 36.3 °F 29.7 in SSO 3.4 mph 4.6 mph 73.4% 0 in
07:44 44.2 °F 36.5 °F 29.7 in SSO 2.9 mph 4.6 mph 74% 0 in
07:49 44.2 °F 36.5 °F 29.7 in SSO 2.5 mph 2.3 mph 74% 0 in
07:54 44.1 °F 36.1 °F 29.7 in SSO 1.8 mph 1.4 mph 73.2% 0 in
07:59 43.9 °F 36 °F 29.7 in SSO 1.1 mph 3.6 mph 73.7% 0 in
08:04 43.7 °F 36.1 °F 29.7 in Calm   3.6 mph 74.8% 0 in
08:09 43.7 °F 36.3 °F 29.7 in Sur 1.1 mph 4.7 mph 75% 0 in
08:14 44.1 °F 36.5 °F 29.7 in Sur 2.9 mph 6.9 mph 74.9% 0 in
08:19 44.2 °F 36.5 °F 29.7 in SSE 3.5 mph 6.2 mph 74% 0 in
08:24 44.2 °F 36.5 °F 29.7 in Sur 4.7 mph 7.4 mph 74% 0 in
08:29 44.4 °F 36.3 °F 29.7 in Sur 4.5 mph 4.7 mph 73.3% 0 in
08:34 44.4 °F 36.3 °F 29.7 in SSO 4 mph 5.2 mph 73% 0 in
08:39 44.8 °F 36.5 °F 29.7 in SO 3.7 mph 5.9 mph 72.8% 0 in
08:44 45 °F 36.5 °F 29.7 in SSO 3.1 mph 4.7 mph 72% 0 in
08:49 45.1 °F 36.5 °F 29.7 in SSO 3.1 mph 5.2 mph 71.9% 0 in
08:54 45.5 °F 36.5 °F 29.7 in SSO 3.1 mph 5.2 mph 71% 0 in
08:59 45.9 °F 36.9 °F 29.7 in SO 3 mph 4.6 mph 71% 0 in
09:04 46 °F 36.9 °F 29.7 in Oeste 2.9 mph 3.6 mph 70% 0 in
09:09 46.2 °F 36.9 °F 29.7 in Oeste 2.7 mph 4.6 mph 69.7% 0 in
09:14 46.2 °F 36.9 °F 29.7 in ONO 2.4 mph 4.6 mph 69.6% 0 in
09:19 46.2 °F 37 °F 29.7 in ONO 2.5 mph 4.6 mph 70% 0 in
09:24 46.4 °F 37.2 °F 29.7 in SO 2.9 mph 2.9 mph 70.4% 0 in
09:29 46.9 °F 37.6 °F 29.7 in SSO 2.5 mph 4.6 mph 70% 0 in
09:34 47.5 °F 37.6 °F 29.7 in Sur 1.8 mph 5.2 mph 68.5% 0 in
09:39 47.8 °F 37.2 °F 29.7 in Sur 2.4 mph 5.9 mph 66.6% 0 in
09:44 48 °F 37.2 °F 29.7 in SSO 3.6 mph 5.8 mph 66% 0 in
09:49 48 °F 37.2 °F 29.7 in SO 3.4 mph 4.7 mph 66% 0 in
09:54 48.4 °F 37.4 °F 29.7 in SSO 3.1 mph 4.7 mph 65.7% 0 in
09:59 48.7 °F 37.4 °F 29.7 in Sur 3 mph 5.9 mph 64.8% 0 in
10:04 49.3 °F 37.4 °F 29.7 in SSO 2.9 mph 5.9 mph 63.6% 0 in
10:09 49.8 °F 37.2 °F 29.7 in SO 3 mph 8.1 mph 61.7% 0 in
10:14 50.5 °F 36.7 °F 29.7 in SO 3.1 mph 8.1 mph 59.1% 0 in
10:19 51.3 °F 36.9 °F 29.7 in SSO 3.7 mph 7.6 mph 57.9% 0 in
10:24 51.6 °F 36.7 °F 29.7 in SSO 4.7 mph 9.2 mph 56.6% 0 in
10:29 52 °F 37 °F 29.7 in SSO 4.8 mph 6.9 mph 57% 0 in
10:34 52.2 °F 37.4 °F 29.7 in Sur 5.2 mph 6.9 mph 57% 0 in
10:39 52.5 °F 37 °F 29.7 in Sur 4.8 mph 7.4 mph 55.3% 0 in
10:44 52.9 °F 37 °F 29.7 in SSO 4.3 mph 7.4 mph 54.8% 0 in
10:49 53.2 °F 37 °F 29.7 in Sur 4.3 mph 6.9 mph 54% 0 in
10:54 53.6 °F 37.8 °F 29.7 in SE 4.3 mph 7.4 mph 54.9% 0 in
10:59 54 °F 37.8 °F 29.7 in SSE 4.7 mph 8.1 mph 54.2% 0 in
11:04 54 °F 37.6 °F 29.7 in SSE 5.2 mph 7.4 mph 53.6% 0 in
11:09 54.1 °F 37.4 °F 29.7 in SSE 5 mph 6.9 mph 53.1% 0 in
11:14 54.7 °F 37.6 °F 29.7 in SE 4.7 mph 6.9 mph 52.3% 0 in
11:19 55 °F 37.6 °F 29.7 in SSE 4.5 mph 8.1 mph 51.6% 0 in
11:24 55.6 °F 37.4 °F 29.7 in SSE 4 mph 7.4 mph 50.4% 0 in
11:29 55.9 °F 36.7 °F 29.7 in Sur 4.1 mph 9.2 mph 48.3% 0 in
11:34 56.3 °F 36.9 °F 29.7 in Sur 4.3 mph 9.7 mph 48.1% 0 in
11:39 56.3 °F 36.9 °F 29.7 in SSO 4.6 mph 9.2 mph 48% 0 in
11:44 56.5 °F 37 °F 29.7 in Sur 5.2 mph 6.9 mph 48% 0 in
11:49 56.7 °F 37.2 °F 29.7 in SSO 5.2 mph 8.5 mph 48% 0 in
11:54 56.7 °F 37.4 °F 29.7 in Sur 5.2 mph 7.6 mph 48.4% 0 in
11:59 57 °F 37 °F 29.7 in SSO 5.2 mph 8.1 mph 46.9% 0 in
12:04 57.6 °F 37.2 °F 29.7 in Sur 5.2 mph 8.1 mph 46.8% 0 in
12:09 57.9 °F 37.2 °F 29.7 in SSO 4.9 mph 8.5 mph 46% 0 in
12:14 58.5 °F 37 °F 29.7 in SSO 4.3 mph 8.1 mph 45% 0 in
12:19 58.6 °F 37.2 °F 29.7 in SSO 4.7 mph 11.5 mph 44.8% 0 in
12:24 59.2 °F 36.9 °F 29.7 in SSO 5.4 mph 10.4 mph 43.4% 0 in
12:29 59.5 °F 36.3 °F 29.7 in SSO 6.1 mph 16.1 mph 41.6% 0 in
12:34 60.3 °F 35.8 °F 29.7 in SSO 7.4 mph 13.8 mph 40% 0 in
12:39 60.4 °F 35.6 °F 29.7 in SO 7.8 mph 15 mph 39.4% 0 in
12:44 60.6 °F 35.6 °F 29.7 in OSO 8.5 mph 10.4 mph 39% 0 in
12:49 61.2 °F 35.8 °F 29.7 in SO 8 mph 15 mph 38.5% 0 in
12:54 61.5 °F 34.9 °F 29.7 in SO 6.9 mph 13.7 mph 37% 0 in
12:59 61.5 °F 34.9 °F 29.6 in SO 6.9 mph 14 mph 36.8% 0 in
13:04 61.7 °F 34.9 °F 29.6 in OSO 6.9 mph 17 mph 36.7% 0 in
13:09 61.5 °F 34.3 °F 29.6 in OSO 7.5 mph 18.4 mph 36% 0 in
13:14 61.5 °F 34.3 °F 29.6 in SO 8.5 mph 17.3 mph 36.2% 0 in
13:19 61.5 °F 34.3 °F 29.6 in SO 9 mph 17.3 mph 36% 0 in
13:24 61.3 °F 34.3 °F 29.6 in SO 10 mph 16.3 mph 36.3% 0 in
13:29 61.3 °F 34.7 °F 29.6 in SO 9.9 mph 18.4 mph 37% 0 in
13:34 61.2 °F 34.7 °F 29.6 in SO 9.7 mph 12.7 mph 37% 0 in
13:39 61.5 °F 34.9 °F 29.6 in OSO 8.7 mph 14.5 mph 37% 0 in
13:44 61.5 °F 35.1 °F 29.6 in SSO 6.9 mph 15 mph 37.1% 0 in
13:49 61.5 °F 35.1 °F 29.6 in SO 7.5 mph 15.2 mph 37% 0 in
13:54 61.5 °F 35.1 °F 29.6 in OSO 8.7 mph 15 mph 37% 0 in
13:59 61.7 °F 35.1 °F 29.6 in OSO 8.4 mph 17.3 mph 37% 0 in
14:04 61.7 °F 35.2 °F 29.6 in SO 8.1 mph 17.5 mph 37% 0 in
14:09 62.1 °F 35.4 °F 29.6 in OSO 8.1 mph 15 mph 37% 0 in
14:14 62.1 °F 35.6 °F 29.6 in SO 8.1 mph 15.2 mph 37% 0 in
14:19 62.4 °F 35.8 °F 29.6 in SO 7.6 mph 10.4 mph 37% 0 in
14:24 62.8 °F 35.4 °F 29.6 in SO 6.9 mph 13 mph 36.2% 0 in
14:29 62.8 °F 35.8 °F 29.6 in SO 6.5 mph 12.7 mph 36.5% 0 in
14:34 63 °F 35.6 °F 29.6 in SSO 5.9 mph 11.8 mph 36% 0 in
14:39 63 °F 35.6 °F 29.6 in SSO 6.8 mph 15 mph 36% 0 in
14:44 62.8 °F 35.8 °F 29.6 in SSO 8.5 mph 8.5 mph 36.5% 0 in
14:49 62.8 °F 36 °F 29.6 in SO 7.3 mph 9.7 mph 36.8% 0 in
14:54 63.1 °F 35.6 °F 29.6 in OSO 5.2 mph 14.7 mph 35.9% 0 in
14:59 63.5 °F 35.2 °F 29.6 in Oeste 6.2 mph 15 mph 34.9% 0 in
15:04 63.7 °F 34.9 °F 29.6 in Oeste 7.6 mph 20.7 mph 34.2% 0 in
15:09 63.3 °F 33.8 °F 29.6 in Oeste 8 mph 19.6 mph 33% 0 in
15:14 63.3 °F 34.2 °F 29.6 in ONO 8.7 mph 18.4 mph 33.5% 0 in
15:19 63 °F 35.2 °F 29.6 in ONO 8.9 mph 20.8 mph 35.6% 0 in
15:24 62.1 °F 35.4 °F 29.6 in ONO 9.2 mph 20.7 mph 36.8% 0 in
15:29 61.2 °F 35.4 °F 29.6 in ONO 10.1 mph 20.7 mph 38% 0 in
15:34 60.8 °F 35.4 °F 29.6 in ONO 11.8 mph 26.5 mph 38.7% 0 in
15:39 60.6 °F 35.4 °F 29.6 in ONO 12.6 mph 25.3 mph 39% 0 in
15:44 60.6 °F 35.6 °F 29.6 in ONO 14 mph 25.3 mph 39.3% 0 in
15:49 60.8 °F 35.6 °F 29.6 in ONO 14.2 mph 25.3 mph 39% 0 in
15:54 60.4 °F 35.4 °F 29.6 in ONO 14.7 mph 26.8 mph 39% 0 in
15:59 60.1 °F 35.2 °F 29.6 in ONO 14.7 mph 26.5 mph 39.6% 0 in
16:04 59.5 °F 35.2 °F 29.6 in ONO 14.7 mph 28.8 mph 40% 0 in
16:09 59.4 °F 35.4 °F 29.6 in ONO 14.7 mph 23 mph 40.6% 0 in
16:14 59.2 °F 35.1 °F 29.6 in NO 14.7 mph 29.1 mph 40.2% 0 in
16:19 59 °F 35.2 °F 29.6 in NO 14.7 mph 21.9 mph 40.9% 0 in
16:24 58.6 °F 35.1 °F 29.6 in ONO 14.7 mph 24.2 mph 41% 0 in
16:29 58.6 °F 35.4 °F 29.6 in ONO 14.3 mph 20.7 mph 41.8% 0 in
16:34 58.8 °F 35.8 °F 29.6 in ONO 13.5 mph 23 mph 42% 0 in
16:39 58.8 °F 35.8 °F 29.6 in Oeste 13.1 mph 17.3 mph 42% 0 in
16:44 59.2 °F 36 °F 29.6 in Oeste 12.3 mph 17.8 mph 42% 0 in
16:49 59.4 °F 35.8 °F 29.6 in Oeste 11.6 mph 21.3 mph 41.3% 0 in
16:54 59.2 °F 35.6 °F 29.7 in Oeste 10.2 mph 17.5 mph 41% 0 in
16:59 59.2 °F 35.4 °F 29.7 in Oeste 10.1 mph 20.7 mph 41.1% 0 in
17:04 58.8 °F 35.8 °F 29.7 in Oeste 10 mph 21.9 mph 42% 0 in
17:09 58.5 °F 36 °F 29.7 in ONO 10.9 mph 31.1 mph 42.7% 0 in
17:14 56.5 °F 36.5 °F 29.7 in ONO 12.5 mph 39.1 mph 46.9% 0 in
17:19 54.3 °F 36.7 °F 29.7 in ONO 16.5 mph 36 mph 51.3% 0 in
17:24 53.4 °F 36.7 °F 29.7 in ONO 23.5 mph 34.5 mph 52.7% 0 in
17:29 53.1 °F 36.7 °F 29.7 in ONO 22.8 mph 31.1 mph 53.9% 0 in
17:34 52.7 °F 36.7 °F 29.7 in NO 21.5 mph 26.5 mph 54.4% 0 in
17:39 52.3 °F 36.7 °F 29.7 in ONO 19 mph 24.6 mph 55% 0 in
17:44 52 °F 36.7 °F 29.7 in ONO 14.5 mph 26.5 mph 55.6% 0 in
17:49 51.4 °F 36.7 °F 29.7 in Oeste 15 mph 25.6 mph 57.2% 0 in
17:54 50.9 °F 36.7 °F 29.7 in ONO 15.9 mph 27.6 mph 58.4% 0 in
17:59 50.5 °F 36.9 °F 29.7 in Oeste 15.9 mph 25.3 mph 59.4% 0 in
18:04 50.4 °F 37 °F 29.7 in Oeste 15.9 mph 20.7 mph 60% 0 in
18:09 50.4 °F 37 °F 29.7 in Oeste 13.9 mph 17.3 mph 60% 0 in
18:14 50.4 °F 36.5 °F 29.7 in Oeste 10.2 mph 17.3 mph 58.8% 0 in
18:19 50.5 °F 36.3 °F 29.7 in Oeste 10.1 mph 14 mph 58% 0 in
18:24 50.5 °F 36 °F 29.7 in Oeste 10 mph 13.8 mph 57.1% 0 in
18:29 50.5 °F 36 °F 29.7 in Oeste 9.4 mph 13.8 mph 57% 0 in
18:34 50.5 °F 36 °F 29.7 in Oeste 8.5 mph 15 mph 57% 0 in
18:39 50.5 °F 36 °F 29.7 in Oeste 8.5 mph 15 mph 57% 0 in
18:44 50.4 °F 35.8 °F 29.7 in OSO 8.5 mph 11.8 mph 57% 0 in
18:49 50.5 °F 35.4 °F 29.7 in OSO 7.8 mph 17.3 mph 56.1% 0 in
18:54 50.7 °F 35.1 °F 29.7 in SO 6.4 mph 11.8 mph 55.1% 0 in
18:59 50.7 °F 35.4 °F 29.7 in SSO 6.8 mph 16.1 mph 55.6% 0 in
19:04 50.5 °F 34.7 °F 29.7 in SO 7.6 mph 16.3 mph 54.2% 0 in
19:09 50.5 °F 34.3 °F 29.7 in SO 8.3 mph 14 mph 53.6% 0 in
19:14 50.4 °F 34.2 °F 29.7 in SSO 9.7 mph 14 mph 53.8% 0 in
19:19 50.2 °F 34.5 °F 29.7 in SSO 9.5 mph 18.1 mph 54.7% 0 in
19:24 49.8 °F 34.5 °F 29.7 in Sur 9.2 mph 18.4 mph 55.5% 0 in
19:29 49.6 °F 34.7 °F 29.7 in Sur 9.5 mph 15.2 mph 56% 0 in
19:34 49.6 °F 34.5 °F 29.7 in Sur 10 mph 15 mph 56% 0 in
19:39 49.6 °F 34.5 °F 29.8 in Sur 9.3 mph 13.5 mph 56% 0 in
19:44 49.6 °F 34.3 °F 29.8 in Sur 8.1 mph 13.8 mph 55.5% 0 in
19:49 49.6 °F 34.2 °F 29.8 in SSE 7.8 mph 10.4 mph 55% 0 in
19:54 49.8 °F 34 °F 29.8 in SSE 7.4 mph 9.7 mph 54.3% 0 in
19:59 50.2 °F 33.6 °F 29.8 in Sur 7 mph 9.2 mph 53.2% 0 in
20:04 50.2 °F 33.6 °F 29.8 in Sur 6.4 mph 9.2 mph 53% 0 in
20:09 50.4 °F 33.8 °F 29.8 in SO 6 mph 9.7 mph 52.7% 0 in
20:14 50.4 °F 33.3 °F 29.7 in OSO 5.4 mph 12.7 mph 51.7% 0 in
20:19 50.5 °F 32.7 °F 29.7 in Oeste 5.6 mph 12.7 mph 50.3% 0 in
20:24 50.7 °F 32.5 °F 29.8 in Oeste 5.9 mph 17.5 mph 49.5% 0 in
20:29 51.1 °F 32.2 °F 29.8 in Oeste 6.5 mph 13.8 mph 48.1% 0 in
20:34 51.3 °F 31.8 °F 29.8 in Oeste 7.6 mph 17.5 mph 47.1% 0 in
20:39 51.4 °F 31.8 °F 29.8 in Oeste 7.5 mph 11.5 mph 47% 0 in
20:44 51.4 °F 31.8 °F 29.8 in Oeste 7.4 mph 10.4 mph 47% 0 in
20:49 51.4 °F 31.3 °F 29.8 in Oeste 6.8 mph 11.8 mph 46% 0 in
20:54 51.4 °F 31.3 °F 29.8 in ONO 5.9 mph 15.9 mph 46% 0 in
20:59 51.6 °F 30.9 °F 29.8 in ONO 7.2 mph 17.5 mph 45.1% 0 in
21:04 51.6 °F 30.9 °F 29.8 in ONO 9.2 mph 14.5 mph 45% 0 in
21:09 51.6 °F 30.9 °F 29.8 in Oeste 8.8 mph 15 mph 45% 0 in
21:14 51.6 °F 30.9 °F 29.8 in ONO 8.1 mph 11.8 mph 45% 0 in
21:19 51.6 °F 30.9 °F 29.8 in ONO 7.8 mph 15 mph 45% 0 in
21:24 51.6 °F 30.9 °F 29.8 in Oeste 7.4 mph 12.7 mph 45% 0 in
21:29 51.6 °F 30.9 °F 29.8 in Oeste 7.8 mph 12.7 mph 45% 0 in
21:34 51.6 °F 30.9 °F 29.8 in Oeste 8.5 mph 14.5 mph 45% 0 in
21:39 51.6 °F 30.9 °F 29.8 in OSO 7.8 mph 15 mph 45% 0 in
21:44 51.6 °F 30.9 °F 29.8 in Oeste 6.4 mph 11.8 mph 45% 0 in
21:49 51.6 °F 30.9 °F 29.8 in Oeste 6.4 mph 12.5 mph 45% 0 in
21:54 51.8 °F 30.7 °F 29.8 in Oeste 6.4 mph 15 mph 44.3% 0 in
21:59 52 °F 30.7 °F 29.8 in OSO 6.8 mph 19 mph 44% 0 in
22:04 52 °F 30.7 °F 29.8 in Oeste 7.6 mph 18.5 mph 44% 0 in
22:09 52 °F 30.7 °F 29.8 in Oeste 8.3 mph 15.2 mph 44% 0 in
22:14 52 °F 30.7 °F 29.8 in ONO 9.7 mph 12.7 mph 44% 0 in
22:19 51.8 °F 30.6 °F 29.8 in ONO 8.5 mph 11.5 mph 44% 0 in
22:24 51.6 °F 30.6 °F 29.8 in Oeste 6.2 mph 18.1 mph 44.3% 0 in
22:29 51.6 °F 30.6 °F 29.8 in Oeste 7 mph 18.4 mph 44.1% 0 in
22:34 51.8 °F 30.9 °F 29.8 in Oeste 8.5 mph 16.1 mph 44.5% 0 in
22:39 51.6 °F 30.9 °F 29.8 in Oeste 8.5 mph 14.5 mph 45% 0 in
22:44 51.6 °F 31.3 °F 29.8 in Oeste 8.5 mph 19.7 mph 45.7% 0 in
22:49 51.6 °F 31.5 °F 29.8 in Oeste 8.9 mph 20.7 mph 46% 0 in
22:54 51.6 °F 31.5 °F 29.8 in ONO 9.7 mph 19.6 mph 46% 0 in
22:59 51.4 °F 31.3 °F 29.8 in Oeste 10.5 mph 23 mph 46% 0 in
23:04 51.4 °F 31.3 °F 29.8 in Oeste 11.8 mph 22.3 mph 46% 0 in
23:09 51.6 °F 31.1 °F 29.8 in Oeste 12.2 mph 22.3 mph 45.6% 0 in
23:14 51.4 °F 30.7 °F 29.8 in Oeste 13 mph 18.4 mph 45% 0 in
23:19 51.4 °F 30.7 °F 29.8 in Oeste 12.4 mph 20.7 mph 45% 0 in
23:24 51.4 °F 30.7 °F 29.8 in Oeste 11.4 mph 24.6 mph 45% 0 in
23:29 51.4 °F 30.7 °F 29.8 in Oeste 12.3 mph 24.2 mph 45% 0 in
23:34 51.3 °F 30.6 °F 29.8 in Oeste 14 mph 29.9 mph 45% 0 in
23:39 51.3 °F 30.6 °F 29.8 in Oeste 14.6 mph 23.5 mph 45% 0 in
23:44 51.1 °F 30.9 °F 29.8 in Oeste 15.6 mph 22.3 mph 45.8% 0 in
23:49 51.1 °F 30.6 °F 29.8 in Oeste 15 mph 27.6 mph 45.2% 0 in
23:54 51.1 °F 30.6 °F 29.8 in Oeste 14 mph 24.2 mph 45% 0 in
23:59 50.7 °F 30.2 °F 29.8 in Oeste 14.5 mph 24.2 mph 45% 0 in
Murcia-Puente Tocinos, Espa?a
Compliments of Weather Underground - 3 mb

La estación de MeteoMurcia.com, publica sus datos en los siguientes proyectos:

Weather Underground PWS IMURCIAP2 Meteoclimatic www.awekas.at

W3Counter
Web Analytics